createdAt,value
2023-05-06T00:01:01.735Z,93.32
2023-05-06T00:03:28.751Z,94.12
2023-05-06T00:05:56.603Z,93.74
2023-05-06T00:08:23.297Z,93.23
2023-05-06T00:10:49.957Z,93.31
2023-05-06T00:13:27.530Z,93.07
2023-05-06T00:15:54.122Z,93.41
2023-05-06T00:18:20.699Z,94.33
2023-05-06T00:20:47.209Z,95.42
2023-05-06T00:23:13.754Z,93.41
2023-05-06T00:25:42.440Z,94.00
2023-05-06T00:28:12.305Z,93.50
2023-05-06T00:30:42.917Z,93.92
2023-05-06T00:33:09.474Z,93.70
2023-05-06T00:35:37.858Z,94.27
2023-05-06T00:38:09.164Z,93.52
2023-05-06T00:40:35.699Z,93.61
2023-05-06T00:43:02.330Z,94.41
2023-05-06T00:45:29.071Z,93.47
2023-05-06T00:47:57.459Z,93.59
2023-05-06T00:50:28.586Z,94.25
2023-05-06T00:52:58.088Z,93.12
2023-05-06T00:55:24.866Z,93.06
2023-05-06T00:57:51.902Z,93.59
2023-05-06T01:00:19.815Z,93.16
2023-05-06T01:02:47.832Z,94.23
2023-05-06T01:05:18.859Z,94.41
2023-05-06T01:07:52.442Z,93.67
2023-05-06T01:10:26.693Z,93.16
2023-05-06T01:13:01.884Z,93.65
2023-05-06T01:15:33.329Z,93.74
2023-05-06T01:18:04.245Z,93.76
2023-05-06T01:20:33.618Z,93.97
2023-05-06T01:23:01.781Z,94.17
2023-05-06T01:25:30.427Z,94.28
2023-05-06T01:27:56.888Z,94.38
2023-05-06T01:30:29.979Z,94.72
2023-05-06T01:33:03.991Z,94.58
2023-05-06T01:35:40.029Z,94.99
2023-05-06T01:38:27.611Z,95.74
2023-05-06T01:40:56.957Z,94.24
2023-05-06T01:43:26.384Z,93.91
2023-05-06T01:45:54.735Z,94.77
2023-05-06T01:48:24.568Z,94.66
2023-05-06T01:50:51.057Z,94.01
2023-05-06T01:53:17.698Z,94.55
2023-05-06T01:55:44.220Z,95.53
2023-05-06T01:58:12.090Z,95.41
2023-05-06T02:00:40.668Z,94.52
2023-05-06T02:03:07.279Z,95.02
2023-05-06T02:05:33.757Z,95.30
2023-05-06T02:08:00.528Z,94.86
2023-05-06T02:10:27.429Z,95.58
2023-05-06T02:13:01.552Z,94.35
2023-05-06T02:15:29.523Z,95.62
2023-05-06T02:17:56.548Z,94.94
2023-05-06T02:20:23.303Z,95.35
2023-05-06T02:22:50.276Z,95.10
2023-05-06T02:25:16.765Z,95.47
2023-05-06T02:27:45.125Z,95.17
2023-05-06T02:30:12.217Z,95.65
2023-05-06T02:32:40.012Z,95.63
2023-05-06T02:35:07.893Z,94.67
2023-05-06T02:37:34.549Z,94.69
2023-05-06T02:40:01.449Z,95.48
2023-05-06T02:42:27.918Z,95.54
2023-05-06T02:44:54.332Z,94.38
2023-05-06T02:47:20.778Z,94.20
2023-05-06T02:49:48.575Z,95.29
2023-05-06T02:52:15.099Z,94.66
2023-05-06T02:54:41.617Z,94.80
2023-05-06T02:57:08.086Z,94.63
2023-05-06T02:59:34.999Z,94.82
2023-05-06T03:02:01.545Z,95.09
2023-05-06T03:04:28.118Z,95.17
2023-05-06T03:06:56.143Z,95.64
2023-05-06T03:09:22.708Z,96.50
2023-05-06T03:11:49.390Z,96.41
2023-05-06T03:14:16.541Z,96.39
2023-05-06T03:16:43.063Z,96.92
2023-05-06T03:19:09.720Z,97.07
2023-05-06T03:21:36.372Z,96.91
2023-05-06T03:24:05.292Z,97.73
2023-05-06T03:26:31.874Z,97.60
2023-05-06T03:28:59.198Z,98.01
2023-05-06T03:31:25.979Z,97.60
2023-05-06T03:33:53.664Z,97.40
2023-05-06T03:36:20.506Z,97.46
2023-05-06T03:38:48.169Z,97.76
2023-05-06T03:41:16.050Z,98.12
2023-05-06T03:43:42.537Z,98.14
2023-05-06T03:46:09.901Z,98.16
2023-05-06T03:48:37.047Z,98.05
2023-05-06T03:51:06.815Z,98.59
2023-05-06T03:53:33.346Z,98.27
2023-05-06T03:55:59.866Z,98.70
2023-05-06T03:58:27.926Z,98.37
2023-05-06T04:00:57.807Z,98.62
2023-05-06T04:03:24.438Z,98.48
2023-05-06T04:05:53.953Z,98.91
2023-05-06T04:08:24.873Z,99.65
2023-05-06T04:10:53.171Z,98.92
2023-05-06T04:13:28.806Z,99.29
2023-05-06T04:15:57.995Z,98.66
2023-05-06T04:18:30.227Z,98.94
2023-05-06T04:21:01.550Z,98.80
2023-05-06T04:23:30.334Z,99.19
2023-05-06T04:25:58.098Z,99.08
2023-05-06T04:28:25.314Z,99.07
2023-05-06T04:30:54.282Z,98.96
2023-05-06T04:33:24.503Z,99.00
2023-05-06T04:35:53.114Z,98.96
2023-05-06T04:38:20.331Z,99.23
2023-05-06T04:40:46.946Z,98.86
2023-05-06T04:43:13.678Z,98.37
2023-05-06T04:45:46.609Z,98.58
2023-05-06T04:48:22.180Z,98.39
2023-05-06T04:50:50.752Z,98.35
2023-05-06T04:53:18.032Z,97.29
2023-05-06T04:55:44.750Z,97.79
2023-05-06T04:58:11.565Z,97.14
2023-05-06T05:00:41.772Z,97.11
2023-05-06T05:03:15.493Z,96.75
2023-05-06T05:05:43.823Z,96.42
2023-05-06T05:08:21.279Z,96.02
2023-05-06T05:10:48.072Z,96.22
2023-05-06T05:13:19.501Z,95.90
2023-05-06T05:15:46.070Z,96.08
2023-05-06T05:18:14.664Z,95.60
2023-05-06T05:20:41.881Z,95.51
2023-05-06T05:23:12.414Z,95.54
2023-05-06T05:25:38.895Z,95.50
2023-05-06T05:28:05.647Z,92.20
2023-05-06T05:30:33.371Z,90.52
2023-05-06T05:33:00.099Z,87.99
2023-05-06T05:35:26.947Z,86.61
2023-05-06T05:37:54.810Z,84.62
2023-05-06T05:40:23.265Z,85.73
2023-05-06T05:42:52.218Z,85.18
2023-05-06T05:45:27.651Z,85.08
2023-05-06T05:47:54.907Z,84.11
2023-05-06T05:50:22.612Z,85.55
2023-05-06T05:52:50.007Z,86.79
2023-05-06T05:55:17.942Z,86.61
2023-05-06T05:57:47.736Z,86.51
2023-05-06T06:00:15.684Z,87.00
2023-05-06T06:02:45.073Z,87.42
2023-05-06T06:05:14.245Z,88.11
2023-05-06T06:07:40.819Z,87.82
2023-05-06T06:10:08.496Z,87.95
2023-05-06T06:12:35.045Z,87.39
2023-05-06T06:15:04.401Z,86.31
2023-05-06T06:17:31.778Z,85.93
2023-05-06T06:19:59.036Z,85.58
2023-05-06T06:22:25.505Z,85.66
2023-05-06T06:24:53.667Z,85.96
2023-05-06T06:27:20.185Z,86.42
2023-05-06T06:29:47.494Z,87.30
2023-05-06T06:32:15.431Z,87.62
2023-05-06T06:34:41.966Z,86.43
2023-05-06T06:37:09.933Z,85.75
2023-05-06T06:39:36.424Z,85.46
2023-05-06T06:42:02.982Z,85.92
2023-05-06T06:44:35.709Z,87.03
2023-05-06T06:47:02.208Z,86.39
2023-05-06T06:49:30.202Z,86.36
2023-05-06T06:51:56.627Z,85.38
2023-05-06T06:54:23.166Z,85.16
2023-05-06T06:56:49.641Z,88.06
2023-05-06T06:59:16.026Z,87.39
2023-05-06T07:01:42.494Z,85.36
2023-05-06T07:04:09.015Z,85.20
2023-05-06T07:06:36.917Z,85.13
2023-05-06T07:09:03.603Z,86.73
2023-05-06T07:11:30.036Z,86.08
2023-05-06T07:13:56.447Z,84.70
2023-05-06T07:16:22.872Z,86.09
2023-05-06T07:18:49.339Z,86.07
2023-05-06T07:21:15.782Z,86.28
2023-05-06T07:23:43.563Z,87.32
2023-05-06T07:26:09.961Z,85.59
2023-05-06T07:28:36.401Z,86.46
2023-05-06T07:31:02.851Z,84.42
2023-05-06T07:33:29.270Z,83.77
2023-05-06T07:35:55.764Z,85.89
2023-05-06T07:38:22.314Z,85.07
2023-05-06T07:40:50.833Z,85.61
2023-05-06T07:43:17.332Z,84.44
2023-05-06T07:45:43.771Z,85.04
2023-05-06T07:48:10.234Z,84.40
2023-05-06T07:50:36.708Z,85.03
2023-05-06T07:53:03.148Z,86.13
2023-05-06T07:55:29.556Z,84.64
2023-05-06T07:57:57.357Z,83.60
2023-05-06T08:00:23.729Z,82.53
2023-05-06T08:02:50.318Z,80.46
2023-05-06T08:05:16.865Z,80.78
2023-05-06T08:07:43.420Z,80.53
2023-05-06T08:10:10.473Z,80.94
2023-05-06T08:12:37.422Z,80.41
2023-05-06T08:15:06.364Z,77.42
2023-05-06T08:17:32.855Z,78.22
2023-05-06T08:19:59.320Z,79.38
2023-05-06T08:22:25.957Z,78.94
2023-05-06T08:24:52.340Z,77.55
2023-05-06T08:27:18.755Z,76.74
2023-05-06T08:29:45.387Z,76.17
2023-05-06T08:32:13.232Z,74.53
2023-05-06T08:34:39.606Z,75.90
2023-05-06T08:37:06.489Z,72.79
2023-05-06T08:39:32.905Z,73.35
2023-05-06T08:42:01.017Z,74.70
2023-05-06T08:44:27.765Z,72.10
2023-05-06T08:46:54.680Z,72.41
2023-05-06T08:49:22.539Z,69.77
2023-05-06T08:51:51.449Z,68.63
2023-05-06T08:54:18.173Z,70.51
2023-05-06T08:56:48.224Z,68.28
2023-05-06T08:59:15.090Z,68.47
2023-05-06T09:01:41.634Z,70.76
2023-05-06T09:04:08.426Z,67.84
2023-05-06T09:06:36.210Z,68.44
2023-05-06T09:09:02.930Z,67.82
2023-05-06T09:11:30.078Z,70.29
2023-05-06T09:14:11.184Z,69.20
2023-05-06T09:16:38.578Z,68.53
2023-05-06T09:19:05.700Z,68.18
2023-05-06T09:21:33.508Z,65.04
2023-05-06T09:24:02.897Z,62.39
2023-05-06T09:26:30.247Z,61.62
2023-05-06T09:28:57.523Z,59.23
2023-05-06T09:31:24.584Z,61.78
2023-05-06T09:33:51.382Z,61.41
2023-05-06T09:36:18.138Z,62.12
2023-05-06T09:38:44.589Z,64.41
2023-05-06T09:41:12.954Z,62.27
2023-05-06T09:43:42.686Z,62.71
2023-05-06T09:46:09.271Z,63.94
2023-05-06T09:48:36.265Z,66.26
2023-05-06T09:51:03.492Z,64.19
2023-05-06T09:53:31.684Z,64.77
2023-05-06T09:55:58.425Z,68.61
2023-05-06T09:58:27.751Z,64.84
2023-05-06T10:00:55.256Z,64.32
2023-05-06T10:03:22.098Z,68.09
2023-05-06T10:05:49.005Z,67.64
2023-05-06T10:08:18.429Z,70.12
2023-05-06T10:10:45.792Z,67.81
2023-05-06T10:13:13.273Z,68.12
2023-05-06T10:15:42.871Z,70.32
2023-05-06T10:18:09.629Z,69.91
2023-05-06T10:20:40.830Z,72.42
2023-05-06T10:23:13.069Z,68.20
2023-05-06T10:25:40.530Z,68.24
2023-05-06T10:28:16.081Z,68.82
2023-05-06T10:30:52.273Z,65.59
2023-05-06T10:33:22.842Z,67.30
2023-05-06T10:35:56.548Z,65.69
2023-05-06T10:38:28.131Z,68.88
2023-05-06T10:40:55.574Z,69.21
2023-05-06T10:43:23.428Z,68.25
2023-05-06T10:46:02.342Z,66.72
2023-05-06T10:48:29.143Z,68.61
2023-05-06T10:51:21.450Z,70.97
2023-05-06T10:54:03.946Z,69.18
2023-05-06T10:56:32.052Z,70.15
2023-05-06T10:59:04.990Z,66.54
2023-05-06T11:01:32.778Z,63.55
2023-05-06T11:04:04.840Z,65.73
2023-05-06T11:06:35.736Z,63.06
2023-05-06T11:09:03.478Z,60.88
2023-05-06T11:11:49.813Z,64.16
2023-05-06T11:14:25.880Z,62.18
2023-05-06T11:16:54.032Z,62.17
2023-05-06T11:19:22.043Z,57.99
2023-05-06T11:21:50.511Z,58.69
2023-05-06T11:24:23.238Z,57.13
2023-05-06T11:26:50.368Z,58.06
2023-05-06T11:29:17.617Z,54.88
2023-05-06T11:31:44.987Z,57.17
2023-05-06T11:34:18.498Z,55.56
2023-05-06T11:36:46.543Z,65.07
2023-05-06T11:39:13.049Z,55.80
2023-05-06T11:41:40.027Z,58.16
2023-05-06T11:44:07.993Z,57.42
2023-05-06T11:46:35.807Z,57.58
2023-05-06T11:49:02.445Z,58.11
2023-05-06T11:51:30.222Z,56.84
2023-05-06T11:54:05.481Z,57.63
2023-05-06T11:56:43.533Z,58.22
2023-05-06T11:59:09.965Z,58.43
2023-05-06T12:01:36.429Z,60.08
2023-05-06T12:04:03.175Z,57.54
2023-05-06T12:06:35.490Z,59.69
2023-05-06T12:09:04.015Z,57.84
2023-05-06T12:11:30.869Z,59.41
2023-05-06T12:13:57.672Z,58.80
2023-05-06T12:16:24.720Z,59.53
2023-05-06T12:18:52.256Z,56.89
2023-05-06T12:21:22.361Z,57.48
2023-05-06T12:23:54.678Z,56.12
2023-05-06T12:26:21.193Z,55.94
2023-05-06T12:29:03.096Z,58.51
2023-05-06T12:31:29.560Z,59.96
2023-05-06T12:33:57.122Z,62.38
2023-05-06T12:36:24.633Z,63.41
2023-05-06T12:38:53.245Z,64.01
2023-05-06T12:41:19.893Z,62.18
2023-05-06T12:43:46.629Z,59.41
2023-05-06T12:46:15.248Z,60.66
2023-05-06T12:48:55.201Z,58.69
2023-05-06T12:51:21.831Z,59.37
2023-05-06T12:53:48.204Z,58.71
2023-05-06T12:56:15.966Z,58.32
2023-05-06T12:58:42.354Z,59.33
2023-05-06T13:01:09.005Z,59.34
2023-05-06T13:03:38.017Z,58.59
2023-05-06T13:06:07.695Z,60.44
2023-05-06T13:08:34.160Z,57.22
2023-05-06T13:11:00.550Z,59.45
2023-05-06T13:13:28.328Z,61.03
2023-05-06T13:15:54.801Z,63.56
2023-05-06T13:18:21.204Z,63.53
2023-05-06T13:20:47.694Z,62.64
2023-05-06T13:23:14.077Z,62.94
2023-05-06T13:25:55.971Z,64.22
2023-05-06T13:28:28.159Z,63.43
2023-05-06T13:30:54.589Z,64.84
2023-05-06T13:33:21.045Z,60.84
2023-05-06T13:35:47.457Z,60.76
2023-05-06T13:38:13.902Z,64.20
2023-05-06T13:40:40.268Z,62.05
2023-05-06T13:43:06.725Z,62.50
2023-05-06T13:45:34.548Z,62.46
2023-05-06T13:48:01.023Z,62.83
2023-05-06T13:50:27.398Z,63.21
2023-05-06T13:52:53.835Z,61.75
2023-05-06T13:55:20.217Z,58.76
2023-05-06T13:57:46.640Z,65.14
2023-05-06T14:00:16.248Z,58.83
2023-05-06T14:02:43.982Z,57.68
2023-05-06T14:05:10.902Z,57.56
2023-05-06T14:07:40.233Z,58.10
2023-05-06T14:10:08.110Z,58.76
2023-05-06T14:12:34.666Z,58.67
2023-05-06T14:15:01.147Z,59.56
2023-05-06T14:17:27.669Z,60.94
2023-05-06T14:19:55.395Z,63.36
2023-05-06T14:22:21.809Z,62.03
2023-05-06T14:24:48.238Z,62.78
2023-05-06T14:27:14.716Z,62.56
2023-05-06T14:29:41.477Z,61.51
2023-05-06T14:32:07.894Z,59.35
2023-05-06T14:34:34.488Z,62.63
2023-05-06T14:37:02.379Z,64.95
2023-05-06T14:39:28.804Z,64.05
2023-05-06T14:41:55.263Z,60.04
2023-05-06T14:44:21.935Z,59.50
2023-05-06T14:46:49.191Z,58.88
2023-05-06T14:49:15.634Z,58.81
2023-05-06T14:51:42.908Z,58.96
2023-05-06T14:54:10.701Z,57.90
2023-05-06T14:56:37.194Z,58.31
2023-05-06T14:59:04.234Z,59.40
2023-05-06T15:01:30.921Z,60.66
2023-05-06T15:03:57.342Z,59.38
2023-05-06T15:06:23.808Z,64.86
2023-05-06T15:08:50.275Z,62.33
2023-05-06T15:11:18.004Z,60.21
2023-05-06T15:13:44.440Z,59.74
2023-05-06T15:16:11.605Z,58.19
2023-05-06T15:18:38.156Z,62.36
2023-05-06T15:21:04.632Z,59.49
2023-05-06T15:23:31.141Z,57.92
2023-05-06T15:25:57.574Z,59.29
2023-05-06T15:28:25.436Z,58.83
2023-05-06T15:30:51.836Z,59.92
2023-05-06T15:33:18.273Z,60.02
2023-05-06T15:35:44.712Z,59.96
2023-05-06T15:38:11.155Z,59.79
2023-05-06T15:40:38.174Z,61.04
2023-05-06T15:43:04.654Z,61.90
2023-05-06T15:45:33.103Z,62.49
2023-05-06T15:47:59.576Z,61.09
2023-05-06T15:52:58.002Z,65.97
2023-05-06T15:55:25.312Z,62.75
2023-05-06T15:57:52.576Z,63.91
2023-05-06T16:00:37.375Z,63.37
2023-05-06T16:03:06.796Z,63.82
2023-05-06T16:05:34.735Z,62.12
2023-05-06T16:08:01.321Z,61.24
2023-05-06T16:10:27.709Z,63.37
2023-05-06T16:12:54.130Z,64.20
2023-05-06T16:15:20.919Z,64.06
2023-05-06T16:17:47.380Z,64.10
2023-05-06T16:20:15.168Z,65.20
2023-05-06T16:22:41.582Z,66.75
2023-05-06T16:25:08.344Z,68.02
2023-05-06T16:27:34.858Z,66.48
2023-05-06T16:30:01.616Z,67.98
2023-05-06T16:32:28.089Z,68.85
2023-05-06T16:34:54.484Z,68.08
2023-05-06T16:37:22.232Z,68.12
2023-05-06T16:39:49.026Z,66.58
2023-05-06T16:42:15.605Z,67.03
2023-05-06T16:44:41.962Z,66.85
2023-05-06T16:47:08.468Z,68.24
2023-05-06T16:49:35.106Z,68.17
2023-05-06T16:52:01.566Z,68.52
2023-05-06T16:54:29.379Z,68.50
2023-05-06T16:56:55.810Z,67.95
2023-05-06T16:59:22.642Z,68.89
2023-05-06T17:01:49.159Z,68.00
2023-05-06T17:04:15.630Z,68.81
2023-05-06T17:06:42.014Z,68.71
2023-05-06T17:09:08.437Z,69.23
2023-05-06T17:11:36.269Z,69.86
2023-05-06T17:14:02.772Z,68.50
2023-05-06T17:16:29.277Z,72.78
2023-05-06T17:18:55.764Z,70.48
2023-05-06T17:21:22.169Z,72.67
2023-05-06T17:23:48.669Z,70.94
2023-05-06T17:26:15.133Z,70.97
2023-05-06T17:28:42.991Z,72.23
2023-05-06T17:31:09.461Z,72.31
2023-05-06T17:33:35.976Z,72.26
2023-05-06T17:36:02.449Z,73.39
2023-05-06T17:38:28.864Z,74.33
2023-05-06T17:40:55.317Z,72.50
2023-05-06T17:43:21.768Z,73.02
2023-05-06T17:45:49.511Z,73.08
2023-05-06T17:48:16.004Z,73.96
2023-05-06T17:50:42.474Z,73.30
2023-05-06T17:53:08.982Z,74.65
2023-05-06T17:55:35.567Z,76.90
2023-05-06T17:58:02.010Z,75.01
2023-05-06T18:00:28.492Z,75.62
2023-05-06T18:02:56.376Z,74.91
2023-05-06T18:05:23.241Z,75.66
2023-05-06T18:07:49.712Z,78.51
2023-05-06T18:10:16.558Z,77.44
2023-05-06T18:12:43.075Z,77.25
2023-05-06T18:15:10.478Z,76.17
2023-05-06T18:17:37.331Z,77.05
2023-05-06T18:20:06.398Z,77.11
2023-05-06T18:22:32.906Z,77.43
2023-05-06T18:24:59.373Z,77.61
2023-05-06T18:27:26.081Z,78.29
2023-05-06T18:29:52.569Z,78.73
2023-05-06T18:32:19.049Z,78.51
2023-05-06T18:34:45.437Z,78.69
2023-05-06T18:37:13.233Z,79.72
2023-05-06T18:39:40.053Z,79.37
2023-05-06T18:42:06.527Z,79.45
2023-05-06T18:44:33.087Z,79.44
2023-05-06T18:46:59.509Z,79.88
2023-05-06T18:49:25.970Z,79.76
2023-05-06T18:51:52.549Z,81.66
2023-05-06T18:54:20.340Z,79.83
2023-05-06T18:56:46.851Z,80.32
2023-05-06T18:59:13.370Z,80.72
2023-05-06T19:01:40.063Z,80.32
2023-05-06T19:04:06.549Z,81.13
2023-05-06T19:06:33.071Z,81.24
2023-05-06T19:08:59.594Z,81.20
2023-05-06T19:11:27.385Z,82.68
2023-05-06T19:13:53.792Z,82.90
2023-05-06T19:16:20.289Z,83.18
2023-05-06T19:18:46.776Z,82.65
2023-05-06T19:21:13.515Z,84.35
2023-05-06T19:23:40.038Z,82.16
2023-05-06T19:26:07.050Z,83.53
2023-05-06T19:28:34.909Z,83.25
2023-05-06T19:31:01.749Z,82.87
2023-05-06T19:33:28.379Z,82.83
2023-05-06T19:35:54.857Z,82.62
2023-05-06T19:38:21.365Z,82.85
2023-05-06T19:40:47.801Z,83.53
2023-05-06T19:43:14.293Z,82.67
2023-05-06T19:45:42.221Z,82.79
2023-05-06T19:48:09.130Z,82.92
2023-05-06T19:50:35.934Z,83.11
2023-05-06T19:53:03.004Z,84.01
2023-05-06T19:55:29.579Z,84.03
2023-05-06T19:57:56.538Z,84.41
2023-05-06T20:00:23.576Z,84.47
2023-05-06T20:02:51.490Z,82.49
2023-05-06T20:05:18.454Z,85.54
2023-05-06T20:07:44.926Z,83.67
2023-05-06T20:10:11.532Z,83.94
2023-05-06T20:12:38.047Z,83.34
2023-05-06T20:15:05.799Z,83.43
2023-05-06T20:17:32.923Z,83.20
2023-05-06T20:20:02.683Z,84.98
2023-05-06T20:22:30.742Z,83.41
2023-05-06T20:25:07.926Z,84.35
2023-05-06T20:27:34.544Z,83.84
2023-05-06T20:30:01.295Z,82.23
2023-05-06T20:32:28.197Z,83.17
2023-05-06T20:34:55.061Z,83.59
2023-05-06T20:37:23.698Z,82.78
2023-05-06T20:39:50.352Z,82.13
2023-05-06T20:42:16.791Z,82.24
2023-05-06T20:44:43.319Z,82.11
2023-05-06T20:47:09.776Z,80.98
2023-05-06T20:49:36.256Z,81.08
2023-05-06T20:52:02.807Z,81.49
2023-05-06T20:54:30.612Z,82.74
2023-05-06T20:56:57.070Z,81.79
2023-05-06T20:59:23.565Z,80.98
2023-05-06T21:01:50.129Z,81.87
2023-05-06T21:04:17.739Z,81.57
2023-05-06T21:06:44.436Z,83.17
2023-05-06T21:09:11.556Z,82.43
2023-05-06T21:11:42.114Z,83.04
2023-05-06T21:14:08.677Z,82.41
2023-05-06T21:16:35.219Z,82.58
2023-05-06T21:19:01.805Z,83.93
2023-05-06T21:21:30.070Z,83.56
2023-05-06T21:23:56.601Z,83.38
2023-05-06T21:26:23.089Z,83.24
2023-05-06T21:28:51.065Z,83.88
2023-05-06T21:31:19.275Z,84.08
2023-05-06T21:33:45.842Z,84.45
2023-05-06T21:36:12.406Z,83.72
2023-05-06T21:38:39.044Z,83.73
2023-05-06T21:41:05.661Z,85.40
2023-05-06T21:43:33.371Z,83.44
2023-05-06T21:46:02.434Z,84.21
2023-05-06T21:48:28.902Z,84.12
2023-05-06T21:50:55.484Z,83.88
2023-05-06T21:53:21.998Z,83.90
2023-05-06T21:55:48.542Z,85.71
2023-05-06T21:58:14.985Z,84.11
2023-05-06T22:00:43.784Z,84.08
2023-05-06T22:03:11.608Z,84.21
2023-05-06T22:05:38.305Z,84.67
2023-05-06T22:08:05.178Z,85.59
2023-05-06T22:10:31.781Z,84.53
2023-05-06T22:12:58.670Z,84.36
2023-05-06T22:15:25.303Z,84.61
2023-05-06T22:17:51.802Z,84.26
2023-05-06T22:20:19.857Z,84.27
2023-05-06T22:22:46.272Z,83.86
2023-05-06T22:25:13.041Z,83.94
2023-05-06T22:27:39.744Z,84.24
2023-05-06T22:30:07.458Z,84.34
2023-05-06T22:32:33.935Z,83.70
2023-05-06T22:35:00.455Z,84.40
2023-05-06T22:37:28.364Z,84.18
2023-05-06T22:39:55.671Z,84.02
2023-05-06T22:42:22.177Z,83.72
2023-05-06T22:44:48.581Z,84.47
2023-05-06T22:47:14.993Z,85.40
2023-05-06T22:49:41.434Z,86.03
2023-05-06T22:52:10.839Z,86.09
2023-05-06T22:54:41.200Z,85.71
2023-05-06T22:57:09.719Z,84.86
2023-05-06T22:59:36.205Z,85.31
2023-05-06T23:02:02.821Z,85.08
2023-05-06T23:04:29.399Z,85.51
2023-05-06T23:06:55.902Z,85.06
2023-05-06T23:09:22.339Z,86.20
2023-05-06T23:11:50.154Z,85.00
2023-05-06T23:14:16.804Z,85.87
2023-05-06T23:16:43.297Z,85.64
2023-05-06T23:19:09.758Z,85.72
2023-05-06T23:21:36.165Z,86.01
2023-05-06T23:24:02.557Z,84.82
2023-05-06T23:26:28.949Z,85.87
2023-05-06T23:28:56.693Z,85.63
2023-05-06T23:31:23.188Z,85.49
2023-05-06T23:33:49.648Z,85.88
2023-05-06T23:36:16.336Z,86.33
2023-05-06T23:38:42.763Z,85.80
2023-05-06T23:41:09.181Z,85.67
2023-05-06T23:43:35.548Z,85.95
2023-05-06T23:46:03.433Z,85.60
2023-05-06T23:48:29.831Z,85.49
2023-05-06T23:50:56.206Z,86.43
2023-05-06T23:53:22.609Z,85.18
2023-05-06T23:55:49.426Z,85.28
2023-05-06T23:58:15.837Z,85.87
